sensor_id;sensor_type;location;lat;lon;timestamp;temperature;humidity
24338;DHT22;12457;50.832;4.346;2023-03-03T00:02:01;3.00;99.90
24338;DHT22;12457;50.832;4.346;2023-03-03T00:04:27;3.00;99.90
24338;DHT22;12457;50.832;4.346;2023-03-03T00:06:52;2.90;99.90
24338;DHT22;12457;50.832;4.346;2023-03-03T00:09:18;2.90;99.90
24338;DHT22;12457;50.832;4.346;2023-03-03T00:11:45;2.90;99.90
24338;DHT22;12457;50.832;4.346;2023-03-03T00:14:21;2.90;99.90
24338;DHT22;12457;50.832;4.346;2023-03-03T00:16:48;2.80;99.90
24338;DHT22;12457;50.832;4.346;2023-03-03T00:19:16;2.80;99.90
24338;DHT22;12457;50.832;4.346;2023-03-03T00:21:44;2.80;99.90
24338;DHT22;12457;50.832;4.346;2023-03-03T00:24:14;2.70;99.90
24338;DHT22;12457;50.832;4.346;2023-03-03T00:26:43;2.70;99.90
24338;DHT22;12457;50.832;4.346;2023-03-03T00:29:22;2.70;99.90
24338;DHT22;12457;50.832;4.346;2023-03-03T00:31:48;2.60;99.90
24338;DHT22;12457;50.832;4.346;2023-03-03T00:36:43;2.60;99.90
24338;DHT22;12457;50.832;4.346;2023-03-03T00:39:18;2.50;99.90
24338;DHT22;12457;50.832;4.346;2023-03-03T00:41:45;2.50;99.90
24338;DHT22;12457;50.832;4.346;2023-03-03T00:44:44;2.50;99.90
24338;DHT22;12457;50.832;4.346;2023-03-03T00:49:47;2.50;99.90
24338;DHT22;12457;50.832;4.346;2023-03-03T00:52:13;2.40;99.90
24338;DHT22;12457;50.832;4.346;2023-03-03T00:54:40;2.40;99.90
24338;DHT22;12457;50.832;4.346;2023-03-03T00:57:09;2.40;99.90
24338;DHT22;12457;50.832;4.346;2023-03-03T00:59:38;2.40;99.90
24338;DHT22;12457;50.832;4.346;2023-03-03T01:02:03;2.50;99.90
24338;DHT22;12457;50.832;4.346;2023-03-03T01:04:29;2.50;99.90
24338;DHT22;12457;50.832;4.346;2023-03-03T01:06:55;2.40;99.90
24338;DHT22;12457;50.832;4.346;2023-03-03T01:09:20;2.40;99.90
24338;DHT22;12457;50.832;4.346;2023-03-03T01:11:46;2.30;99.90
24338;DHT22;12457;50.832;4.346;2023-03-03T01:14:11;2.20;99.90
24338;DHT22;12457;50.832;4.346;2023-03-03T01:16:37;2.20;99.90
24338;DHT22;12457;50.832;4.346;2023-03-03T01:19:03;2.20;99.90
24338;DHT22;12457;50.832;4.346;2023-03-03T01:21:28;2.20;99.90
24338;DHT22;12457;50.832;4.346;2023-03-03T01:23:54;2.10;99.90
24338;DHT22;12457;50.832;4.346;2023-03-03T01:26:19;2.10;99.90
24338;DHT22;12457;50.832;4.346;2023-03-03T01:28:45;2.10;99.90
24338;DHT22;12457;50.832;4.346;2023-03-03T01:31:10;2.20;99.90
24338;DHT22;12457;50.832;4.346;2023-03-03T01:33:37;2.20;99.90
24338;DHT22;12457;50.832;4.346;2023-03-03T01:36:02;2.30;99.90
24338;DHT22;12457;50.832;4.346;2023-03-03T01:38:28;2.30;99.90
24338;DHT22;12457;50.832;4.346;2023-03-03T01:40:54;2.30;99.90
24338;DHT22;12457;50.832;4.346;2023-03-03T01:43:20;2.20;99.90
24338;DHT22;12457;50.832;4.346;2023-03-03T01:51:04;2.00;99.90
24338;DHT22;12457;50.832;4.346;2023-03-03T01:53:42;2.00;99.90
24338;DHT22;12457;50.832;4.346;2023-03-03T01:56:09;2.00;99.90
24338;DHT22;12457;50.832;4.346;2023-03-03T01:58:36;2.00;99.90
24338;DHT22;12457;50.832;4.346;2023-03-03T02:01:03;1.90;99.90
24338;DHT22;12457;50.832;4.346;2023-03-03T02:03:30;1.90;99.90
24338;DHT22;12457;50.832;4.346;2023-03-03T02:05:58;2.00;99.90
24338;DHT22;12457;50.832;4.346;2023-03-03T02:08:27;1.90;99.90
24338;DHT22;12457;50.832;4.346;2023-03-03T02:10:56;2.00;99.90
24338;DHT22;12457;50.832;4.346;2023-03-03T02:13:22;2.00;99.90
24338;DHT22;12457;50.832;4.346;2023-03-03T02:15:48;2.10;99.90
24338;DHT22;12457;50.832;4.346;2023-03-03T02:18:14;2.10;99.90
24338;DHT22;12457;50.832;4.346;2023-03-03T02:25:46;2.00;99.90
24338;DHT22;12457;50.832;4.346;2023-03-03T02:28:13;2.10;99.90
24338;DHT22;12457;50.832;4.346;2023-03-03T02:30:39;2.10;99.90
24338;DHT22;12457;50.832;4.346;2023-03-03T02:33:05;2.10;99.90
24338;DHT22;12457;50.832;4.346;2023-03-03T02:37:59;2.20;99.90
24338;DHT22;12457;50.832;4.346;2023-03-03T02:40:27;2.20;99.90
24338;DHT22;12457;50.832;4.346;2023-03-03T02:42:55;2.20;99.90
24338;DHT22;12457;50.832;4.346;2023-03-03T02:45:22;2.20;99.90
24338;DHT22;12457;50.832;4.346;2023-03-03T02:47:49;2.20;99.90
24338;DHT22;12457;50.832;4.346;2023-03-03T02:50:15;2.10;99.90
24338;DHT22;12457;50.832;4.346;2023-03-03T02:52:41;2.10;99.90
24338;DHT22;12457;50.832;4.346;2023-03-03T02:55:06;2.00;99.90
24338;DHT22;12457;50.832;4.346;2023-03-03T02:57:32;2.00;99.90
24338;DHT22;12457;50.832;4.346;2023-03-03T02:59:57;2.00;99.90
24338;DHT22;12457;50.832;4.346;2023-03-03T03:02:23;1.90;99.90
24338;DHT22;12457;50.832;4.346;2023-03-03T03:04:49;1.90;99.90
24338;DHT22;12457;50.832;4.346;2023-03-03T03:07:14;1.90;99.90
24338;DHT22;12457;50.832;4.346;2023-03-03T03:09:40;2.00;99.90
24338;DHT22;12457;50.832;4.346;2023-03-03T03:12:05;2.00;99.90
24338;DHT22;12457;50.832;4.346;2023-03-03T03:14:31;2.00;99.90
24338;DHT22;12457;50.832;4.346;2023-03-03T03:16:57;2.00;99.90
24338;DHT22;12457;50.832;4.346;2023-03-03T03:19:23;2.00;99.90
24338;DHT22;12457;50.832;4.346;2023-03-03T03:21:48;1.90;99.90
24338;DHT22;12457;50.832;4.346;2023-03-03T03:24:14;1.80;99.90
24338;DHT22;12457;50.832;4.346;2023-03-03T03:26:39;1.90;99.90
24338;DHT22;12457;50.832;4.346;2023-03-03T03:29:05;1.90;99.90
24338;DHT22;12457;50.832;4.346;2023-03-03T03:31:31;2.00;99.90
24338;DHT22;12457;50.832;4.346;2023-03-03T03:33:57;1.90;99.90
24338;DHT22;12457;50.832;4.346;2023-03-03T03:36:24;1.90;99.90
24338;DHT22;12457;50.832;4.346;2023-03-03T03:38:51;1.80;99.90
24338;DHT22;12457;50.832;4.346;2023-03-03T03:41:16;1.70;99.90
24338;DHT22;12457;50.832;4.346;2023-03-03T03:43:42;1.70;99.90
24338;DHT22;12457;50.832;4.346;2023-03-03T03:46:08;1.80;99.90
24338;DHT22;12457;50.832;4.346;2023-03-03T03:48:33;1.80;99.90
24338;DHT22;12457;50.832;4.346;2023-03-03T03:50:59;1.90;99.90
24338;DHT22;12457;50.832;4.346;2023-03-03T03:53:24;1.90;99.90
24338;DHT22;12457;50.832;4.346;2023-03-03T03:55:50;1.90;99.90
24338;DHT22;12457;50.832;4.346;2023-03-03T03:58:16;1.90;99.90
24338;DHT22;12457;50.832;4.346;2023-03-03T04:00:42;1.90;99.90
24338;DHT22;12457;50.832;4.346;2023-03-03T04:03:08;1.90;99.90
24338;DHT22;12457;50.832;4.346;2023-03-03T04:05:35;1.80;99.90
24338;DHT22;12457;50.832;4.346;2023-03-03T04:08:00;1.80;99.90
24338;DHT22;12457;50.832;4.346;2023-03-03T04:10:26;1.80;99.90
24338;DHT22;12457;50.832;4.346;2023-03-03T04:12:51;1.80;99.90
24338;DHT22;12457;50.832;4.346;2023-03-03T04:15:17;1.80;99.90
24338;DHT22;12457;50.832;4.346;2023-03-03T04:17:43;1.90;99.90
24338;DHT22;12457;50.832;4.346;2023-03-03T04:20:10;1.90;99.90
24338;DHT22;12457;50.832;4.346;2023-03-03T04:22:37;1.80;99.90
24338;DHT22;12457;50.832;4.346;2023-03-03T04:25:02;1.80;99.90
24338;DHT22;12457;50.832;4.346;2023-03-03T04:27:33;1.70;99.90
24338;DHT22;12457;50.832;4.346;2023-03-03T04:29:58;1.70;99.90
24338;DHT22;12457;50.832;4.346;2023-03-03T04:32:24;1.60;99.90
24338;DHT22;12457;50.832;4.346;2023-03-03T04:34:49;1.60;99.90
24338;DHT22;12457;50.832;4.346;2023-03-03T04:37:15;1.60;99.90
24338;DHT22;12457;50.832;4.346;2023-03-03T04:39:41;1.50;99.90
24338;DHT22;12457;50.832;4.346;2023-03-03T04:42:07;1.50;99.90
24338;DHT22;12457;50.832;4.346;2023-03-03T04:44:33;1.50;99.90
24338;DHT22;12457;50.832;4.346;2023-03-03T04:46:58;1.50;99.90
24338;DHT22;12457;50.832;4.346;2023-03-03T04:49:24;1.50;99.90
24338;DHT22;12457;50.832;4.346;2023-03-03T04:51:49;1.50;99.90
24338;DHT22;12457;50.832;4.346;2023-03-03T04:54:15;1.50;99.90
24338;DHT22;12457;50.832;4.346;2023-03-03T04:56:40;1.30;99.90
24338;DHT22;12457;50.832;4.346;2023-03-03T04:59:06;1.20;99.90
24338;DHT22;12457;50.832;4.346;2023-03-03T05:01:32;1.20;99.90
24338;DHT22;12457;50.832;4.346;2023-03-03T05:03:57;1.30;99.90
24338;DHT22;12457;50.832;4.346;2023-03-03T05:06:23;1.30;99.90
24338;DHT22;12457;50.832;4.346;2023-03-03T05:08:48;1.30;99.90
24338;DHT22;12457;50.832;4.346;2023-03-03T05:11:14;1.40;99.90
24338;DHT22;12457;50.832;4.346;2023-03-03T05:13:41;1.30;99.90
24338;DHT22;12457;50.832;4.346;2023-03-03T05:16:06;1.30;99.90
24338;DHT22;12457;50.832;4.346;2023-03-03T05:18:32;1.30;99.90
24338;DHT22;12457;50.832;4.346;2023-03-03T05:20:58;1.30;99.90
24338;DHT22;12457;50.832;4.346;2023-03-03T05:23:23;1.50;99.90
24338;DHT22;12457;50.832;4.346;2023-03-03T05:25:49;1.60;99.90
24338;DHT22;12457;50.832;4.346;2023-03-03T05:28:15;1.50;99.90
24338;DHT22;12457;50.832;4.346;2023-03-03T05:30:41;1.50;99.90
24338;DHT22;12457;50.832;4.346;2023-03-03T05:33:06;1.50;99.90
24338;DHT22;12457;50.832;4.346;2023-03-03T05:35:32;1.50;99.90
24338;DHT22;12457;50.832;4.346;2023-03-03T05:37:58;1.50;99.90
24338;DHT22;12457;50.832;4.346;2023-03-03T05:40:24;1.40;99.90
24338;DHT22;12457;50.832;4.346;2023-03-03T05:42:51;1.30;99.90
24338;DHT22;12457;50.832;4.346;2023-03-03T05:45:16;1.30;99.90
24338;DHT22;12457;50.832;4.346;2023-03-03T05:47:51;1.30;99.90
24338;DHT22;12457;50.832;4.346;2023-03-03T05:50:17;1.30;99.90
24338;DHT22;12457;50.832;4.346;2023-03-03T05:52:43;1.20;99.90
24338;DHT22;12457;50.832;4.346;2023-03-03T05:55:09;1.30;99.90
24338;DHT22;12457;50.832;4.346;2023-03-03T05:57:35;1.40;99.90
24338;DHT22;12457;50.832;4.346;2023-03-03T06:00:01;1.30;99.90
24338;DHT22;12457;50.832;4.346;2023-03-03T06:02:27;1.30;99.90
24338;DHT22;12457;50.832;4.346;2023-03-03T06:04:53;1.30;99.90
24338;DHT22;12457;50.832;4.346;2023-03-03T06:07:19;1.20;99.90
24338;DHT22;12457;50.832;4.346;2023-03-03T06:09:44;1.20;99.90
24338;DHT22;12457;50.832;4.346;2023-03-03T06:12:10;1.20;99.90
24338;DHT22;12457;50.832;4.346;2023-03-03T06:14:36;1.10;99.90
24338;DHT22;12457;50.832;4.346;2023-03-03T06:17:01;1.10;99.90
24338;DHT22;12457;50.832;4.346;2023-03-03T06:19:27;1.10;99.90
24338;DHT22;12457;50.832;4.346;2023-03-03T06:21:52;1.10;99.90
24338;DHT22;12457;50.832;4.346;2023-03-03T06:24:18;1.20;99.90
24338;DHT22;12457;50.832;4.346;2023-03-03T06:26:43;1.30;99.90
24338;DHT22;12457;50.832;4.346;2023-03-03T06:29:09;1.30;99.90
24338;DHT22;12457;50.832;4.346;2023-03-03T06:31:35;1.40;99.90
24338;DHT22;12457;50.832;4.346;2023-03-03T06:34:01;1.30;99.90
24338;DHT22;12457;50.832;4.346;2023-03-03T06:36:26;1.20;99.90
24338;DHT22;12457;50.832;4.346;2023-03-03T06:38:52;1.10;99.90
24338;DHT22;12457;50.832;4.346;2023-03-03T06:41:17;1.00;99.90
24338;DHT22;12457;50.832;4.346;2023-03-03T06:43:43;1.00;99.90
24338;DHT22;12457;50.832;4.346;2023-03-03T06:46:08;1.10;99.90
24338;DHT22;12457;50.832;4.346;2023-03-03T06:48:34;1.10;99.90
24338;DHT22;12457;50.832;4.346;2023-03-03T06:51:01;1.20;99.90
24338;DHT22;12457;50.832;4.346;2023-03-03T06:53:26;1.20;99.90
24338;DHT22;12457;50.832;4.346;2023-03-03T06:55:53;1.30;99.90
24338;DHT22;12457;50.832;4.346;2023-03-03T06:58:20;1.30;99.90
24338;DHT22;12457;50.832;4.346;2023-03-03T07:00:59;1.20;99.90
24338;DHT22;12457;50.832;4.346;2023-03-03T07:03:25;1.20;99.90
24338;DHT22;12457;50.832;4.346;2023-03-03T07:05:54;1.10;99.90
24338;DHT22;12457;50.832;4.346;2023-03-03T07:08:20;1.10;99.90
24338;DHT22;12457;50.832;4.346;2023-03-03T07:10:47;1.20;99.90
24338;DHT22;12457;50.832;4.346;2023-03-03T07:13:17;1.20;99.90
24338;DHT22;12457;50.832;4.346;2023-03-03T07:15:43;1.20;99.90
24338;DHT22;12457;50.832;4.346;2023-03-03T07:20:49;1.30;99.90
24338;DHT22;12457;50.832;4.346;2023-03-03T07:23:28;1.40;99.90
24338;DHT22;12457;50.832;4.346;2023-03-03T07:25:55;1.40;99.90
24338;DHT22;12457;50.832;4.346;2023-03-03T07:28:28;1.40;99.90
24338;DHT22;12457;50.832;4.346;2023-03-03T07:30:55;1.40;99.90
24338;DHT22;12457;50.832;4.346;2023-03-03T07:33:30;1.40;99.90
24338;DHT22;12457;50.832;4.346;2023-03-03T07:35:58;1.50;99.90
24338;DHT22;12457;50.832;4.346;2023-03-03T07:38:28;1.40;99.90
24338;DHT22;12457;50.832;4.346;2023-03-03T07:40:55;1.40;99.90
24338;DHT22;12457;50.832;4.346;2023-03-03T07:43:33;1.30;99.90
24338;DHT22;12457;50.832;4.346;2023-03-03T07:46:13;1.40;99.90
24338;DHT22;12457;50.832;4.346;2023-03-03T07:48:41;1.40;99.90
24338;DHT22;12457;50.832;4.346;2023-03-03T07:51:40;1.30;99.90
24338;DHT22;12457;50.832;4.346;2023-03-03T07:54:16;1.30;99.90
24338;DHT22;12457;50.832;4.346;2023-03-03T07:56:42;1.40;99.90
24338;DHT22;12457;50.832;4.346;2023-03-03T07:59:25;1.40;99.90
24338;DHT22;12457;50.832;4.346;2023-03-03T08:01:55;1.50;99.90
24338;DHT22;12457;50.832;4.346;2023-03-03T08:04:39;1.40;99.90
24338;DHT22;12457;50.832;4.346;2023-03-03T08:07:11;1.50;99.90
24338;DHT22;12457;50.832;4.346;2023-03-03T08:09:38;1.50;99.90
24338;DHT22;12457;50.832;4.346;2023-03-03T08:14:34;1.60;99.90
24338;DHT22;12457;50.832;4.346;2023-03-03T08:17:00;1.60;99.90
24338;DHT22;12457;50.832;4.346;2023-03-03T08:19:26;1.60;99.90
24338;DHT22;12457;50.832;4.346;2023-03-03T08:22:01;1.50;99.90
24338;DHT22;12457;50.832;4.346;2023-03-03T08:24:33;1.40;99.90
24338;DHT22;12457;50.832;4.346;2023-03-03T08:26:59;1.40;99.90
24338;DHT22;12457;50.832;4.346;2023-03-03T08:29:24;1.50;99.90
24338;DHT22;12457;50.832;4.346;2023-03-03T08:31:50;1.50;99.90
24338;DHT22;12457;50.832;4.346;2023-03-03T08:34:16;1.50;99.90
24338;DHT22;12457;50.832;4.346;2023-03-03T08:36:42;1.60;99.90
24338;DHT22;12457;50.832;4.346;2023-03-03T08:39:07;1.60;99.90
24338;DHT22;12457;50.832;4.346;2023-03-03T08:41:34;1.70;99.90
24338;DHT22;12457;50.832;4.346;2023-03-03T08:44:00;1.60;99.90
24338;DHT22;12457;50.832;4.346;2023-03-03T08:46:25;1.60;99.90
24338;DHT22;12457;50.832;4.346;2023-03-03T08:48:52;1.70;99.90
24338;DHT22;12457;50.832;4.346;2023-03-03T08:51:18;1.70;99.90
24338;DHT22;12457;50.832;4.346;2023-03-03T08:53:43;1.70;99.90
24338;DHT22;12457;50.832;4.346;2023-03-03T08:56:09;1.60;99.90
24338;DHT22;12457;50.832;4.346;2023-03-03T08:58:34;1.60;99.90
24338;DHT22;12457;50.832;4.346;2023-03-03T09:01:00;1.70;99.90
24338;DHT22;12457;50.832;4.346;2023-03-03T09:03:26;1.70;99.90
24338;DHT22;12457;50.832;4.346;2023-03-03T09:05:51;1.90;99.90
24338;DHT22;12457;50.832;4.346;2023-03-03T09:08:17;1.70;99.90
24338;DHT22;12457;50.832;4.346;2023-03-03T09:10:42;1.80;99.90
24338;DHT22;12457;50.832;4.346;2023-03-03T09:13:15;1.90;99.90
24338;DHT22;12457;50.832;4.346;2023-03-03T09:15:46;1.90;99.90
24338;DHT22;12457;50.832;4.346;2023-03-03T09:18:25;2.00;99.90
24338;DHT22;12457;50.832;4.346;2023-03-03T09:20:55;1.90;99.90
24338;DHT22;12457;50.832;4.346;2023-03-03T09:25:54;2.00;99.90
24338;DHT22;12457;50.832;4.346;2023-03-03T09:28:23;2.00;99.90
24338;DHT22;12457;50.832;4.346;2023-03-03T09:30:49;2.10;99.90
24338;DHT22;12457;50.832;4.346;2023-03-03T09:33:20;2.20;99.90
24338;DHT22;12457;50.832;4.346;2023-03-03T09:35:49;2.30;99.90
24338;DHT22;12457;50.832;4.346;2023-03-03T09:43:11;2.20;99.90
24338;DHT22;12457;50.832;4.346;2023-03-03T09:48:24;2.30;99.90
24338;DHT22;12457;50.832;4.346;2023-03-03T09:56:11;2.40;99.90
24338;DHT22;12457;50.832;4.346;2023-03-03T10:01:17;2.50;99.90
24338;DHT22;12457;50.832;4.346;2023-03-03T10:03:59;2.70;99.90
24338;DHT22;12457;50.832;4.346;2023-03-03T10:06:30;2.60;99.90
24338;DHT22;12457;50.832;4.346;2023-03-03T10:14:29;2.80;99.90
24338;DHT22;12457;50.832;4.346;2023-03-03T10:17:33;2.80;99.90
24338;DHT22;12457;50.832;4.346;2023-03-03T10:19:56;2.90;99.90
24338;DHT22;12457;50.832;4.346;2023-03-03T10:27:42;3.00;99.90
24338;DHT22;12457;50.832;4.346;2023-03-03T10:30:27;3.00;99.90
24338;DHT22;12457;50.832;4.346;2023-03-03T10:32:59;2.90;99.90
24338;DHT22;12457;50.832;4.346;2023-03-03T10:35:40;2.90;99.90
24338;DHT22;12457;50.832;4.346;2023-03-03T10:43:21;3.00;99.90
24338;DHT22;12457;50.832;4.346;2023-03-03T10:53:23;3.20;99.90
24338;DHT22;12457;50.832;4.346;2023-03-03T10:58:42;3.20;99.90
24338;DHT22;12457;50.832;4.346;2023-03-03T11:03:44;3.60;99.90
24338;DHT22;12457;50.832;4.346;2023-03-03T11:08:48;3.80;99.90
24338;DHT22;12457;50.832;4.346;2023-03-03T11:11:19;3.80;99.90
24338;DHT22;12457;50.832;4.346;2023-03-03T11:13:58;3.70;99.90
24338;DHT22;12457;50.832;4.346;2023-03-03T11:21:39;3.80;99.90
24338;DHT22;12457;50.832;4.346;2023-03-03T11:27:05;4.10;99.90
24338;DHT22;12457;50.832;4.346;2023-03-03T11:34:42;4.30;99.90
24338;DHT22;12457;50.832;4.346;2023-03-03T11:37:26;4.40;99.90
24338;DHT22;12457;50.832;4.346;2023-03-03T11:39:53;4.50;99.90
24338;DHT22;12457;50.832;4.346;2023-03-03T11:44:48;4.40;99.90
24338;DHT22;12457;50.832;4.346;2023-03-03T11:50:01;4.80;99.90
24338;DHT22;12457;50.832;4.346;2023-03-03T11:55:13;4.70;99.90
24338;DHT22;12457;50.832;4.346;2023-03-03T12:03:02;4.80;52.60
24338;DHT22;12457;50.832;4.346;2023-03-03T12:16:10;5.60;31.20
24338;DHT22;12457;50.832;4.346;2023-03-03T12:24:20;5.40;29.90
24338;DHT22;12457;50.832;4.346;2023-03-03T12:26:51;5.60;26.20
24338;DHT22;12457;50.832;4.346;2023-03-03T12:29:24;5.70;23.60
24338;DHT22;12457;50.832;4.346;2023-03-03T12:32:03;5.90;19.20
24338;DHT22;12457;50.832;4.346;2023-03-03T12:35:05;5.90;16.90
24338;DHT22;12457;50.832;4.346;2023-03-03T12:37:33;6.20;9.20
24338;DHT22;12457;50.832;4.346;2023-03-03T12:40:08;6.30;2.00
24338;DHT22;12457;50.832;4.346;2023-03-03T12:47:38;6.40;7.30
24338;DHT22;12457;50.832;4.346;2023-03-03T13:00:21;5.60;14.00
24338;DHT22;12457;50.832;4.346;2023-03-03T13:08:22;5.70;14.60
24338;DHT22;12457;50.832;4.346;2023-03-03T13:13:30;5.90;9.30
24338;DHT22;12457;50.832;4.346;2023-03-03T13:16:09;6.10;7.50
24338;DHT22;12457;50.832;4.346;2023-03-03T13:23:49;6.40;2.90
24338;DHT22;12457;50.832;4.346;2023-03-03T13:31:37;6.50;1.00
24338;DHT22;12457;50.832;4.346;2023-03-03T13:34:04;6.70;1.00
24338;DHT22;12457;50.832;4.346;2023-03-03T13:36:34;6.80;1.00
24338;DHT22;12457;50.832;4.346;2023-03-03T13:39:20;6.70;1.00
24338;DHT22;12457;50.832;4.346;2023-03-03T13:41:51;6.50;1.00
24338;DHT22;12457;50.832;4.346;2023-03-03T13:52:04;6.20;2.80
24338;DHT22;12457;50.832;4.346;2023-03-03T14:02:30;6.30;3.70
24338;DHT22;12457;50.832;4.346;2023-03-03T14:05:03;6.30;1.00
24338;DHT22;12457;50.832;4.346;2023-03-03T14:15:23;6.60;1.00
24338;DHT22;12457;50.832;4.346;2023-03-03T14:17:55;6.60;1.00
24338;DHT22;12457;50.832;4.346;2023-03-03T14:20:28;6.70;1.00
24338;DHT22;12457;50.832;4.346;2023-03-03T14:23:07;6.60;1.00
24338;DHT22;12457;50.832;4.346;2023-03-03T14:28:21;6.80;1.00
24338;DHT22;12457;50.832;4.346;2023-03-03T14:30:47;6.80;1.00
24338;DHT22;12457;50.832;4.346;2023-03-03T14:33:18;6.70;1.00
24338;DHT22;12457;50.832;4.346;2023-03-03T14:38:17;6.70;1.00
24338;DHT22;12457;50.832;4.346;2023-03-03T14:40:43;6.70;1.00
24338;DHT22;12457;50.832;4.346;2023-03-03T14:45:47;6.90;1.00
24338;DHT22;12457;50.832;4.346;2023-03-03T14:48:17;6.90;1.00
24338;DHT22;12457;50.832;4.346;2023-03-03T14:50:52;6.90;1.00
24338;DHT22;12457;50.832;4.346;2023-03-03T14:55:44;7.10;1.00
24338;DHT22;12457;50.832;4.346;2023-03-03T14:58:24;7.00;1.00
24338;DHT22;12457;50.832;4.346;2023-03-03T15:00:58;7.00;1.00
24338;DHT22;12457;50.832;4.346;2023-03-03T15:03:31;6.90;1.00
24338;DHT22;12457;50.832;4.346;2023-03-03T15:05:57;7.10;1.00
24338;DHT22;12457;50.832;4.346;2023-03-03T15:08:33;7.10;1.00
24338;DHT22;12457;50.832;4.346;2023-03-03T15:11:12;7.10;1.00
24338;DHT22;12457;50.832;4.346;2023-03-03T15:13:38;7.00;1.00
24338;DHT22;12457;50.832;4.346;2023-03-03T15:16:11;7.00;1.00
24338;DHT22;12457;50.832;4.346;2023-03-03T15:21:34;7.10;1.00
24338;DHT22;12457;50.832;4.346;2023-03-03T15:31:34;7.10;1.00
24338;DHT22;12457;50.832;4.346;2023-03-03T15:34:18;7.20;1.00
24338;DHT22;12457;50.832;4.346;2023-03-03T15:36:58;7.20;1.00
24338;DHT22;12457;50.832;4.346;2023-03-03T15:39:45;7.20;1.00
24338;DHT22;12457;50.832;4.346;2023-03-03T15:42:14;7.30;1.00
24338;DHT22;12457;50.832;4.346;2023-03-03T15:55:05;7.20;1.00
24338;DHT22;12457;50.832;4.346;2023-03-03T15:57:42;7.20;1.00
24338;DHT22;12457;50.832;4.346;2023-03-03T16:00:22;7.20;1.00
24338;DHT22;12457;50.832;4.346;2023-03-03T16:02:51;7.10;1.00
24338;DHT22;12457;50.832;4.346;2023-03-03T16:05:32;7.10;1.00
24338;DHT22;12457;50.832;4.346;2023-03-03T16:08:12;7.20;1.00
24338;DHT22;12457;50.832;4.346;2023-03-03T16:13:43;7.20;1.00
24338;DHT22;12457;50.832;4.346;2023-03-03T16:16:19;7.10;1.00
24338;DHT22;12457;50.832;4.346;2023-03-03T16:21:40;7.00;1.00
24338;DHT22;12457;50.832;4.346;2023-03-03T16:29:17;7.00;1.00
24338;DHT22;12457;50.832;4.346;2023-03-03T16:34:18;7.00;1.00
24338;DHT22;12457;50.832;4.346;2023-03-03T16:42:02;7.00;1.00
24338;DHT22;12457;50.832;4.346;2023-03-03T16:47:11;7.00;1.00
24338;DHT22;12457;50.832;4.346;2023-03-03T16:52:28;6.90;1.00
24338;DHT22;12457;50.832;4.346;2023-03-03T16:57:29;6.80;1.00
24338;DHT22;12457;50.832;4.346;2023-03-03T17:02:48;6.80;2.50
24338;DHT22;12457;50.832;4.346;2023-03-03T17:08:01;6.60;7.40
24338;DHT22;12457;50.832;4.346;2023-03-03T17:18:06;6.60;10.20
24338;DHT22;12457;50.832;4.346;2023-03-03T17:20:48;6.60;10.50
24338;DHT22;12457;50.832;4.346;2023-03-03T17:33:27;6.70;7.90
24338;DHT22;12457;50.832;4.346;2023-03-03T17:46:17;6.70;7.10
24338;DHT22;12457;50.832;4.346;2023-03-03T17:56:28;6.50;8.20
24338;DHT22;12457;50.832;4.346;2023-03-03T18:09:30;6.50;10.90
24338;DHT22;12457;50.832;4.346;2023-03-03T18:17:13;6.30;19.60
24338;DHT22;12457;50.832;4.346;2023-03-03T18:19:45;6.30;16.80
24338;DHT22;12457;50.832;4.346;2023-03-03T18:22:33;6.30;18.90
24338;DHT22;12457;50.832;4.346;2023-03-03T18:25:09;6.40;17.70
24338;DHT22;12457;50.832;4.346;2023-03-03T18:27:36;6.40;18.00
24338;DHT22;12457;50.832;4.346;2023-03-03T18:32:44;6.40;17.60
24338;DHT22;12457;50.832;4.346;2023-03-03T18:37:52;6.50;17.40
24338;DHT22;12457;50.832;4.346;2023-03-03T18:42:49;6.40;19.70
24338;DHT22;12457;50.832;4.346;2023-03-03T18:50:38;6.60;14.70
24338;DHT22;12457;50.832;4.346;2023-03-03T18:55:39;6.70;8.50
24338;DHT22;12457;50.832;4.346;2023-03-03T19:03:09;6.70;7.20
24338;DHT22;12457;50.832;4.346;2023-03-03T19:05:48;6.70;4.90
24338;DHT22;12457;50.832;4.346;2023-03-03T19:08:20;6.70;5.60
24338;DHT22;12457;50.832;4.346;2023-03-03T19:13:47;6.80;1.20
24338;DHT22;12457;50.832;4.346;2023-03-03T19:21:20;6.80;4.10
24338;DHT22;12457;50.832;4.346;2023-03-03T19:36:46;6.80;1.00
24338;DHT22;12457;50.832;4.346;2023-03-03T19:47:03;6.80;1.00
24338;DHT22;12457;50.832;4.346;2023-03-03T19:49:50;6.90;1.00
24338;DHT22;12457;50.832;4.346;2023-03-03T19:52:28;7.00;1.00
24338;DHT22;12457;50.832;4.346;2023-03-03T20:05:55;6.90;1.00
24338;DHT22;12457;50.832;4.346;2023-03-03T20:08:42;6.90;1.00
24338;DHT22;12457;50.832;4.346;2023-03-03T20:11:09;6.90;1.00
24338;DHT22;12457;50.832;4.346;2023-03-03T20:22:26;6.80;1.00
24338;DHT22;12457;50.832;4.346;2023-03-03T20:29:30;6.80;5.40
24338;DHT22;12457;50.832;4.346;2023-03-03T20:34:52;6.70;18.20
24338;DHT22;12457;50.832;4.346;2023-03-03T20:37:39;6.60;22.40
24338;DHT22;12457;50.832;4.346;2023-03-03T20:47:59;6.70;28.20
24338;DHT22;12457;50.832;4.346;2023-03-03T20:50:45;6.60;28.60
24338;DHT22;12457;50.832;4.346;2023-03-03T20:58:40;6.60;33.70
24338;DHT22;12457;50.832;4.346;2023-03-03T21:01:13;6.70;32.50
24338;DHT22;12457;50.832;4.346;2023-03-03T21:03:42;6.60;29.10
24338;DHT22;12457;50.832;4.346;2023-03-03T21:11:07;6.60;32.00
24338;DHT22;12457;50.832;4.346;2023-03-03T21:18:32;6.50;37.10
24338;DHT22;12457;50.832;4.346;2023-03-03T21:20:57;6.50;34.30
24338;DHT22;12457;50.832;4.346;2023-03-03T21:23:23;6.50;35.20
24338;DHT22;12457;50.832;4.346;2023-03-03T21:25:49;6.40;37.50
24338;DHT22;12457;50.832;4.346;2023-03-03T21:28:25;6.40;36.90
24338;DHT22;12457;50.832;4.346;2023-03-03T21:36:17;6.50;29.80
24338;DHT22;12457;50.832;4.346;2023-03-03T21:38:43;6.50;25.30
24338;DHT22;12457;50.832;4.346;2023-03-03T21:41:10;6.40;25.10
24338;DHT22;12457;50.832;4.346;2023-03-03T21:43:41;6.40;26.80
24338;DHT22;12457;50.832;4.346;2023-03-03T21:46:07;6.40;22.70
24338;DHT22;12457;50.832;4.346;2023-03-03T21:48:33;6.50;16.50
24338;DHT22;12457;50.832;4.346;2023-03-03T21:50:58;6.40;14.30
24338;DHT22;12457;50.832;4.346;2023-03-03T21:53:24;6.30;11.70
24338;DHT22;12457;50.832;4.346;2023-03-03T21:55:53;6.30;16.90
24338;DHT22;12457;50.832;4.346;2023-03-03T21:58:19;6.30;15.30
24338;DHT22;12457;50.832;4.346;2023-03-03T22:00:45;6.30;9.90
24338;DHT22;12457;50.832;4.346;2023-03-03T22:03:10;6.30;11.00
24338;DHT22;12457;50.832;4.346;2023-03-03T22:05:36;6.30;14.10
24338;DHT22;12457;50.832;4.346;2023-03-03T22:08:02;6.30;11.20
24338;DHT22;12457;50.832;4.346;2023-03-03T22:10:27;6.40;11.20
24338;DHT22;12457;50.832;4.346;2023-03-03T22:12:53;6.50;8.70
24338;DHT22;12457;50.832;4.346;2023-03-03T22:15:19;6.40;3.80
24338;DHT22;12457;50.832;4.346;2023-03-03T22:17:45;6.40;3.40
24338;DHT22;12457;50.832;4.346;2023-03-03T22:20:11;6.50;1.40
24338;DHT22;12457;50.832;4.346;2023-03-03T22:22:38;6.40;1.00
24338;DHT22;12457;50.832;4.346;2023-03-03T22:25:04;6.30;1.00
24338;DHT22;12457;50.832;4.346;2023-03-03T22:27:30;6.20;1.00
24338;DHT22;12457;50.832;4.346;2023-03-03T22:29:56;6.20;1.00
24338;DHT22;12457;50.832;4.346;2023-03-03T22:32:21;6.30;2.80
24338;DHT22;12457;50.832;4.346;2023-03-03T22:34:49;6.30;3.70